createdAt,value
2017-09-14T00:00:57.128Z,99485.84
2017-09-14T00:03:26.644Z,99478.27
2017-09-14T00:05:56.155Z,99474.61
2017-09-14T00:08:25.669Z,99488.09
2017-09-14T00:10:55.070Z,99479.08
2017-09-14T00:13:24.396Z,99480.35
2017-09-14T00:15:53.912Z,99481.19
2017-09-14T00:18:23.432Z,99478.67
2017-09-14T00:20:52.986Z,99475.91
2017-09-14T00:23:22.308Z,99481.26
2017-09-14T00:25:51.909Z,99484.48
2017-09-14T00:28:21.235Z,99480.55
2017-09-14T00:30:50.756Z,99482.56
2017-09-14T00:33:20.797Z,99479.20
2017-09-14T00:35:50.322Z,99476.84
2017-09-14T00:38:19.681Z,99472.98
2017-09-14T00:40:49.042Z,99469.64
2017-09-14T00:43:19.419Z,99465.05
2017-09-14T00:45:48.982Z,99457.25
2017-09-14T00:48:18.447Z,99452.20
2017-09-14T00:50:47.898Z,99451.50
2017-09-14T00:53:17.260Z,99447.91
2017-09-14T00:55:46.668Z,99443.47
2017-09-14T00:58:16.096Z,99438.43
2017-09-14T01:00:45.465Z,99440.61
2017-09-14T01:03:14.896Z,99438.59
2017-09-14T01:05:44.326Z,99445.82
2017-09-14T01:08:13.721Z,99449.78
2017-09-14T01:10:43.259Z,99449.45
2017-09-14T01:13:12.604Z,99436.95
2017-09-14T01:15:41.993Z,99443.47
2017-09-14T01:18:11.328Z,99452.08
2017-09-14T01:20:40.708Z,99447.38
2017-09-14T01:23:10.010Z,99448.19
2017-09-14T01:25:39.382Z,99441.12
2017-09-14T01:28:08.625Z,99447.68
2017-09-14T01:30:37.946Z,99439.41
2017-09-14T01:33:07.174Z,99434.88
2017-09-14T01:35:36.458Z,99440.59
2017-09-14T01:38:08.906Z,99427.05
2017-09-14T01:40:38.537Z,99436.77
2017-09-14T01:43:07.756Z,99429.33
2017-09-14T01:45:37.011Z,99426.41
2017-09-14T01:48:06.230Z,99433.12
2017-09-14T01:50:35.469Z,99436.22
2017-09-14T01:53:04.850Z,99436.16
2017-09-14T01:55:34.088Z,99434.34
2017-09-14T01:58:03.341Z,99428.41
2017-09-14T02:00:32.580Z,99437.66
2017-09-14T02:03:01.882Z,99435.17
2017-09-14T02:05:31.172Z,99438.80
2017-09-14T02:08:00.518Z,99423.34
2017-09-14T02:10:29.791Z,99419.52
2017-09-14T02:12:59.311Z,99427.95
2017-09-14T02:15:28.685Z,99429.56
2017-09-14T02:17:57.968Z,99429.06
2017-09-14T02:20:27.278Z,99440.09
2017-09-14T02:22:56.774Z,99433.09
2017-09-14T02:25:26.073Z,99439.69
2017-09-14T02:27:55.300Z,99440.16
2017-09-14T02:30:24.601Z,99439.52
2017-09-14T02:32:53.824Z,99433.16
2017-09-14T02:35:24.620Z,99433.84
2017-09-14T02:37:54.430Z,99434.00
2017-09-14T02:40:23.845Z,99425.73
2017-09-14T02:43:00.000Z,99417.30
2017-09-14T02:45:29.509Z,99394.05
2017-09-14T02:47:58.768Z,99381.08
2017-09-14T02:50:28.141Z,99364.65
2017-09-14T02:52:57.446Z,99392.20
2017-09-14T02:55:26.784Z,99390.25
2017-09-14T02:57:56.037Z,99390.32
2017-09-14T03:00:25.326Z,99381.98
2017-09-14T03:02:54.609Z,99388.12
2017-09-14T03:05:23.913Z,99380.17
2017-09-14T03:07:53.162Z,99378.63
2017-09-14T03:10:22.442Z,99376.84
2017-09-14T03:12:51.707Z,99367.70
2017-09-14T03:15:21.060Z,99368.98
2017-09-14T03:17:50.449Z,99366.06
2017-09-14T03:20:19.815Z,99359.98
2017-09-14T03:22:49.083Z,99349.70
2017-09-14T03:25:18.407Z,99350.41
2017-09-14T03:27:47.705Z,99371.00
2017-09-14T03:30:16.984Z,99363.14
2017-09-14T03:32:46.265Z,99364.18
2017-09-14T03:35:15.677Z,99355.75
2017-09-14T03:37:45.022Z,99358.20
2017-09-14T03:40:14.334Z,99355.22
2017-09-14T03:42:43.736Z,99347.75
2017-09-14T03:45:13.021Z,99357.30
2017-09-14T03:47:42.281Z,99367.10
2017-09-14T03:50:11.552Z,99384.44
2017-09-14T03:52:40.790Z,99380.75
2017-09-14T03:55:10.112Z,99395.05
2017-09-14T03:57:39.353Z,99401.94
2017-09-14T04:03:09.605Z,99396.47
2017-09-14T04:05:38.948Z,99402.91
2017-09-14T04:08:08.405Z,99416.63
2017-09-14T04:10:37.760Z,99406.28
2017-09-14T04:13:07.031Z,99409.44
2017-09-14T04:15:36.351Z,99423.38
2017-09-14T04:18:05.828Z,99425.30
2017-09-14T04:20:35.392Z,99410.38
2017-09-14T04:23:04.648Z,99405.38
2017-09-14T04:25:34.064Z,99418.91
2017-09-14T04:28:03.472Z,99405.17
2017-09-14T04:30:32.849Z,99386.98
2017-09-14T04:33:02.188Z,99402.89
2017-09-14T04:35:31.547Z,99410.75
2017-09-14T04:38:00.897Z,99435.72
2017-09-14T04:40:30.241Z,99429.30
2017-09-14T04:42:59.588Z,99372.97
2017-09-14T04:45:29.017Z,99329.45
2017-09-14T04:47:58.412Z,99364.87
2017-09-14T04:50:29.431Z,99362.98
2017-09-14T04:52:59.164Z,99361.00
2017-09-14T04:55:28.587Z,99401.91
2017-09-14T04:57:57.969Z,99383.29
2017-09-14T05:00:27.983Z,99347.70
2017-09-14T05:02:57.445Z,99349.45
2017-09-14T05:05:27.050Z,99357.31
2017-09-14T05:07:57.784Z,99364.45
2017-09-14T05:10:27.096Z,99382.39
2017-09-14T05:12:56.424Z,99412.02
2017-09-14T05:15:25.810Z,99450.43
2017-09-14T05:18:00.852Z,99454.56
2017-09-14T05:20:31.736Z,99411.95
2017-09-14T05:23:01.096Z,99346.94
2017-09-14T05:25:30.499Z,99391.30
2017-09-14T05:27:59.809Z,99392.34
2017-09-14T05:30:29.190Z,99396.36
2017-09-14T05:32:58.788Z,99424.95
2017-09-14T05:35:28.112Z,99414.20
2017-09-14T05:37:58.063Z,99385.28
2017-09-14T05:40:27.403Z,99431.53
2017-09-14T05:42:57.313Z,99434.77
2017-09-14T05:45:26.717Z,99428.72
2017-09-14T05:47:56.035Z,99406.87
2017-09-14T05:50:25.368Z,99415.48
2017-09-14T05:52:54.690Z,99414.20
2017-09-14T05:55:24.006Z,99412.16
2017-09-14T05:57:53.285Z,99414.20
2017-09-14T06:00:22.638Z,99411.18
2017-09-14T06:02:52.114Z,99413.00
2017-09-14T06:05:21.443Z,99396.83
2017-09-14T06:07:50.767Z,99412.02
2017-09-14T06:10:20.216Z,99429.42
2017-09-14T06:12:49.564Z,99435.78
2017-09-14T06:15:18.883Z,99426.27
2017-09-14T06:17:49.067Z,99436.95
2017-09-14T06:20:18.625Z,99471.73
2017-09-14T06:22:47.975Z,99462.08
2017-09-14T06:25:17.623Z,99460.71
2017-09-14T06:27:46.985Z,99449.80
2017-09-14T06:30:16.386Z,99445.99
2017-09-14T06:32:45.679Z,99459.84
2017-09-14T06:35:15.132Z,99467.94
2017-09-14T06:37:44.455Z,99434.70
2017-09-14T06:40:14.422Z,99439.64
2017-09-14T06:42:43.707Z,99456.28
2017-09-14T06:45:13.077Z,99445.33
2017-09-14T06:47:42.418Z,99453.94
2017-09-14T06:50:11.932Z,99448.25
2017-09-14T06:52:42.128Z,99444.55
2017-09-14T06:55:11.862Z,99460.12
2017-09-14T06:57:41.600Z,99457.80
2017-09-14T07:00:11.048Z,99446.03
2017-09-14T07:02:40.459Z,99456.75
2017-09-14T07:05:09.906Z,99450.73
2017-09-14T07:07:39.286Z,99436.65
2017-09-14T07:10:08.693Z,99435.73
2017-09-14T07:12:38.006Z,99433.81
2017-09-14T07:15:07.424Z,99468.17
2017-09-14T07:17:36.722Z,99458.92
2017-09-14T07:20:06.109Z,99471.20
2017-09-14T07:22:37.032Z,99443.94
2017-09-14T07:25:08.544Z,99434.66
2017-09-14T07:27:37.883Z,99413.03
2017-09-14T07:31:14.061Z,99420.80
2017-09-14T07:36:28.854Z,99508.34
2017-09-14T07:38:58.657Z,99528.27
2017-09-14T07:41:28.056Z,99533.44
2017-09-14T07:43:57.480Z,99527.53
2017-09-14T07:46:27.252Z,99506.98
2017-09-14T07:48:57.267Z,99504.44
2017-09-14T07:51:27.197Z,99497.73
2017-09-14T07:53:57.205Z,99508.94
2017-09-14T07:56:26.519Z,99498.62
2017-09-14T07:58:55.796Z,99511.61
2017-09-14T08:01:29.268Z,99511.05
2017-09-14T08:03:58.675Z,99518.09
2017-09-14T08:06:37.406Z,99519.08
2017-09-14T08:09:07.056Z,99519.80
2017-09-14T08:11:36.403Z,99519.12
2017-09-14T08:14:05.758Z,99513.11
2017-09-14T08:16:37.368Z,99529.77
2017-09-14T08:19:06.704Z,99536.03
2017-09-14T08:21:36.039Z,99542.28
2017-09-14T08:24:05.338Z,99530.13
2017-09-14T08:26:34.999Z,99537.84
2017-09-14T08:29:04.311Z,99541.08
2017-09-14T08:31:33.615Z,99550.41
2017-09-14T08:34:02.937Z,99556.91
2017-09-14T08:36:32.267Z,99547.20
2017-09-14T08:39:01.594Z,99542.06
2017-09-14T08:41:31.131Z,99529.29
2017-09-14T08:44:00.400Z,99525.47
2017-09-14T08:46:29.741Z,99530.10
2017-09-14T08:48:59.023Z,99532.18
2017-09-14T08:51:29.022Z,99523.14
2017-09-14T08:53:58.297Z,99514.48
2017-09-14T08:56:27.730Z,99519.09
2017-09-14T08:58:57.009Z,99536.37
2017-09-14T09:01:26.320Z,99553.88
2017-09-14T09:03:55.671Z,99557.27
2017-09-14T09:06:24.987Z,99545.76
2017-09-14T09:08:54.319Z,99530.85
2017-09-14T09:11:23.657Z,99531.43
2017-09-14T09:13:52.945Z,99538.39
2017-09-14T09:16:22.343Z,99538.16
2017-09-14T09:18:51.619Z,99543.34
2017-09-14T09:21:21.048Z,99533.02
2017-09-14T09:23:50.338Z,99541.16
2017-09-14T09:26:19.733Z,99543.31
2017-09-14T09:28:49.011Z,99537.77
2017-09-14T09:31:19.934Z,99544.69
2017-09-14T09:33:49.199Z,99539.66
2017-09-14T09:36:18.585Z,99562.77
2017-09-14T09:38:47.848Z,99569.28
2017-09-14T09:41:19.440Z,99565.77
2017-09-14T09:43:49.086Z,99570.34
2017-09-14T09:46:18.571Z,99574.48
2017-09-14T09:48:48.040Z,99588.22
2017-09-14T09:51:17.504Z,99590.20
2017-09-14T09:53:47.384Z,99584.50
2017-09-14T09:56:20.024Z,99600.08
2017-09-14T09:58:50.195Z,99590.85
2017-09-14T10:01:19.552Z,99592.20
2017-09-14T10:03:49.003Z,99578.24
2017-09-14T10:06:19.287Z,99592.79
2017-09-14T10:08:48.642Z,99586.85
2017-09-14T10:11:18.014Z,99591.83
2017-09-14T10:13:47.359Z,99584.35
2017-09-14T10:16:16.731Z,99590.34
2017-09-14T10:18:46.060Z,99599.38
2017-09-14T10:21:15.401Z,99578.00
2017-09-14T10:23:44.693Z,99563.20
2017-09-14T10:26:14.249Z,99544.52
2017-09-14T10:28:43.598Z,99569.65
2017-09-14T10:31:13.064Z,99573.59
2017-09-14T10:33:42.848Z,99591.24
2017-09-14T10:36:13.130Z,99601.41
2017-09-14T10:38:43.798Z,99584.91
2017-09-14T10:41:13.693Z,99554.58
2017-09-14T10:48:04.137Z,99550.33
2017-09-14T10:50:33.782Z,99547.20
2017-09-14T10:53:04.812Z,99533.19
2017-09-14T10:55:34.928Z,99555.70
2017-09-14T10:58:05.017Z,99576.82
2017-09-14T11:00:37.989Z,99582.78
2017-09-14T11:03:10.201Z,99599.05
2017-09-14T11:05:39.608Z,99617.17
2017-09-14T11:08:13.763Z,99614.61
2017-09-14T11:10:48.868Z,99576.67
2017-09-14T11:13:20.457Z,99566.54
2017-09-14T11:15:50.333Z,99560.03
2017-09-14T11:18:20.604Z,99579.00
2017-09-14T11:20:50.187Z,99634.84
2017-09-14T11:23:19.563Z,99640.36
2017-09-14T11:25:50.949Z,99627.84
2017-09-14T11:28:24.532Z,99606.89
2017-09-14T11:30:59.862Z,99610.03
2017-09-14T11:33:29.304Z,99624.67
2017-09-14T11:36:03.704Z,99619.34
2017-09-14T11:38:34.334Z,99617.27
2017-09-14T11:41:06.461Z,99605.30
2017-09-14T11:43:37.597Z,99595.05
2017-09-14T11:46:08.225Z,99603.66
2017-09-14T11:48:39.012Z,99608.59
2017-09-14T11:51:12.705Z,99603.73
2017-09-14T11:53:46.875Z,99592.78
2017-09-14T11:56:16.896Z,99561.91
2017-09-14T11:58:56.829Z,99563.70
2017-09-14T12:01:39.006Z,99505.48
2017-09-14T12:04:16.805Z,99596.50
2017-09-14T12:06:50.792Z,99600.66
2017-09-14T12:09:20.598Z,99598.07
2017-09-14T12:11:52.817Z,99597.58
2017-09-14T12:14:23.298Z,99585.97
2017-09-14T12:16:53.665Z,99565.31
2017-09-14T12:19:23.863Z,99543.05
2017-09-14T12:21:53.565Z,99544.08
2017-09-14T12:24:23.577Z,99566.59
2017-09-14T12:26:54.071Z,99572.70
2017-09-14T12:29:23.763Z,99565.33
2017-09-14T12:31:57.361Z,99584.04
2017-09-14T12:34:27.120Z,99590.68
2017-09-14T12:37:00.139Z,99591.12
2017-09-14T12:39:30.972Z,99587.39
2017-09-14T12:42:00.328Z,99586.80
2017-09-14T12:44:31.100Z,99581.70
2017-09-14T12:47:00.776Z,99573.70
2017-09-14T12:49:31.699Z,99580.59
2017-09-14T12:52:03.355Z,99581.87
2017-09-14T12:54:36.793Z,99588.72
2017-09-14T12:57:06.522Z,99592.91
2017-09-14T12:59:36.167Z,99590.20
2017-09-14T13:02:05.976Z,99599.52
2017-09-14T13:04:36.579Z,99595.63
2017-09-14T13:07:06.239Z,99582.87
2017-09-14T13:09:35.604Z,99581.14
2017-09-14T13:12:06.356Z,99588.99
2017-09-14T13:14:37.993Z,99586.68
2017-09-14T13:17:07.591Z,99587.75
2017-09-14T13:19:37.820Z,99593.06
2017-09-14T13:22:09.009Z,99593.18
2017-09-14T13:24:38.335Z,99596.48
2017-09-14T13:27:08.553Z,99591.80
2017-09-14T13:30:03.860Z,99575.97
2017-09-14T13:32:39.657Z,99572.70
2017-09-14T13:38:09.086Z,99567.89
2017-09-14T13:40:38.784Z,99588.05
2017-09-14T13:43:10.177Z,99583.77
2017-09-14T13:45:41.365Z,99586.53
2017-09-14T13:48:14.557Z,99583.27
2017-09-14T13:50:46.348Z,99591.03
2017-09-14T13:53:17.341Z,99592.38
2017-09-14T13:55:46.962Z,99595.63
2017-09-14T13:58:20.131Z,99597.66
2017-09-14T14:00:50.241Z,99598.48
2017-09-14T14:03:20.923Z,99602.28
2017-09-14T14:05:51.056Z,99600.15
2017-09-14T14:08:20.433Z,99599.52
2017-09-14T14:10:51.168Z,99599.97
2017-09-14T14:13:21.096Z,99611.47
2017-09-14T14:15:50.840Z,99611.47
2017-09-14T14:18:20.174Z,99610.92
2017-09-14T14:20:50.560Z,99603.33
2017-09-14T14:23:21.414Z,99612.63
2017-09-14T14:25:53.806Z,99617.36
2017-09-14T14:28:24.687Z,99621.24
2017-09-14T14:30:55.323Z,99626.05
2017-09-14T14:33:24.823Z,99608.74
2017-09-14T14:35:59.060Z,99616.15
2017-09-14T14:38:31.524Z,99626.72
2017-09-14T14:41:01.896Z,99629.91
2017-09-14T14:43:31.344Z,99635.80
2017-09-14T14:46:02.473Z,99637.34
2017-09-14T14:48:32.204Z,99639.88
2017-09-14T14:51:02.557Z,99636.42
2017-09-14T14:53:33.125Z,99641.19
2017-09-14T14:56:02.647Z,99652.36
2017-09-14T14:58:32.366Z,99652.44
2017-09-14T15:01:02.008Z,99667.86
2017-09-14T15:03:32.073Z,99686.81
2017-09-14T15:06:01.629Z,99712.42
2017-09-14T15:08:31.987Z,99701.23
2017-09-14T15:11:02.614Z,99681.02
2017-09-14T15:13:32.360Z,99668.59
2017-09-14T15:16:02.934Z,99673.79
2017-09-14T15:18:35.356Z,99667.50
2017-09-14T15:21:05.484Z,99674.56
2017-09-14T15:23:35.490Z,99651.27
2017-09-14T15:26:04.991Z,99667.52
2017-09-14T15:28:38.269Z,99665.28
2017-09-14T15:31:07.661Z,99667.64
2017-09-14T15:33:37.174Z,99660.13
2017-09-14T15:36:07.949Z,99663.91
2017-09-14T15:38:42.347Z,99662.38
2017-09-14T15:41:44.152Z,99672.45
2017-09-14T15:44:17.874Z,99681.50
2017-09-14T15:46:47.274Z,99676.33
2017-09-14T15:49:20.892Z,99683.16
2017-09-14T15:51:53.791Z,99688.66
2017-09-14T15:54:24.896Z,99684.47
2017-09-14T15:56:54.355Z,99687.38
2017-09-14T15:59:24.919Z,99695.48
2017-09-14T16:01:57.118Z,99694.42
2017-09-14T16:04:27.569Z,99698.36
2017-09-14T16:06:56.976Z,99700.34
2017-09-14T16:09:28.035Z,99701.23
2017-09-14T16:12:04.674Z,99692.72
2017-09-14T16:14:34.752Z,99694.30
2017-09-14T16:17:07.829Z,99695.51
2017-09-14T16:19:39.750Z,99695.07
2017-09-14T16:22:15.186Z,99705.80
2017-09-14T16:24:47.116Z,99703.93
2017-09-14T16:27:17.732Z,99701.06
2017-09-14T16:30:09.003Z,99686.52
2017-09-14T16:32:38.907Z,99699.72
2017-09-14T16:35:14.746Z,99697.86
2017-09-14T16:37:50.273Z,99694.34
2017-09-14T16:40:23.126Z,99694.63
2017-09-14T16:43:04.035Z,99707.04
2017-09-14T16:45:38.990Z,99705.50
2017-09-14T16:48:11.097Z,99706.48
2017-09-14T16:50:42.481Z,99715.95
2017-09-14T16:53:17.413Z,99720.45
2017-09-14T16:55:53.780Z,99719.77
2017-09-14T16:58:31.061Z,99725.95
2017-09-14T17:01:07.691Z,99716.11
2017-09-14T17:03:44.344Z,99726.33
2017-09-14T17:06:26.742Z,99729.98
2017-09-14T17:11:41.010Z,99731.59
2017-09-14T17:14:13.008Z,99731.35
2017-09-14T17:16:47.188Z,99735.75
2017-09-14T17:19:17.005Z,99730.17
2017-09-14T17:21:49.678Z,99735.70
2017-09-14T17:24:20.100Z,99741.93
2017-09-14T17:26:52.238Z,99745.41
2017-09-14T17:29:32.283Z,99741.23
2017-09-14T17:32:12.197Z,99743.19
2017-09-14T17:34:48.200Z,99749.20
2017-09-14T17:37:17.832Z,99751.33
2017-09-14T17:40:24.745Z,99753.03
2017-09-14T17:43:02.376Z,99764.70
2017-09-14T17:49:33.233Z,99780.08
2017-09-14T17:52:18.941Z,99774.67
2017-09-14T17:54:57.878Z,99783.08
2017-09-14T17:57:32.230Z,99789.63
2017-09-14T18:00:05.149Z,99796.02
2017-09-14T18:06:01.698Z,99800.39
2017-09-14T18:08:39.036Z,99808.80
2017-09-14T18:11:25.049Z,99806.05
2017-09-14T18:13:56.569Z,99809.87
2017-09-14T18:16:33.623Z,99807.52
2017-09-14T18:20:07.322Z,99805.89
2017-09-14T18:29:22.854Z,99814.66
2017-09-14T18:31:53.435Z,99825.77
2017-09-14T18:34:23.189Z,99831.08
2017-09-14T18:36:55.052Z,99828.27
2017-09-14T18:39:28.520Z,99833.13
2017-09-14T18:41:57.917Z,99834.01
2017-09-14T18:44:28.020Z,99832.23
2017-09-14T18:46:59.320Z,99842.26
2017-09-14T18:49:28.924Z,99850.35
2017-09-14T18:51:58.851Z,99853.01
2017-09-14T18:54:29.213Z,99856.01
2017-09-14T18:57:04.127Z,99851.14
2017-09-14T18:59:33.916Z,99854.61
2017-09-14T19:02:03.972Z,99856.23
2017-09-14T19:04:34.752Z,99852.02
2017-09-14T19:07:06.564Z,99852.98
2017-09-14T19:09:35.820Z,99856.08
2017-09-14T19:12:05.376Z,99854.05
2017-09-14T19:14:35.785Z,99855.67
2017-09-14T19:17:11.530Z,99858.67
2017-09-14T19:19:44.696Z,99855.67
2017-09-14T19:22:16.885Z,99854.05
2017-09-14T19:24:46.289Z,99848.95
2017-09-14T19:27:15.723Z,99847.02
2017-09-14T19:29:45.405Z,99851.70
2017-09-14T19:32:35.780Z,99849.62
2017-09-14T19:35:06.024Z,99846.72
2017-09-14T19:37:35.691Z,99852.98
2017-09-14T19:40:09.569Z,99856.17
2017-09-14T19:43:41.604Z,99852.10
2017-09-14T19:46:17.069Z,99854.64
2017-09-14T19:48:49.100Z,99835.31
2017-09-14T19:51:19.296Z,99850.50
2017-09-14T19:53:49.680Z,99857.13
2017-09-14T19:56:21.666Z,99860.86
2017-09-14T19:58:54.348Z,99862.23
2017-09-14T20:01:28.520Z,99860.61
2017-09-14T20:04:06.945Z,99866.91
2017-09-14T20:06:48.807Z,99861.50
2017-09-14T20:10:51.660Z,99795.48
2017-09-14T20:13:23.481Z,99856.81
2017-09-14T20:16:07.521Z,99855.59
2017-09-14T20:18:41.864Z,99853.48
2017-09-14T20:21:29.398Z,99850.23
2017-09-14T20:23:59.514Z,99855.02
2017-09-14T20:26:29.060Z,99858.31
2017-09-14T20:29:01.213Z,99854.76
2017-09-14T20:31:30.592Z,99850.33
2017-09-14T20:34:01.543Z,99852.57
2017-09-14T20:36:43.530Z,99850.25
2017-09-14T20:39:36.596Z,99851.52
2017-09-14T20:42:16.637Z,99862.05
2017-09-14T20:44:56.643Z,99855.89
2017-09-14T20:47:46.774Z,99866.31
2017-09-14T20:50:23.581Z,99871.52
2017-09-14T20:53:01.475Z,99869.79
2017-09-14T20:55:34.780Z,99865.25
2017-09-14T20:58:15.503Z,99871.91
2017-09-14T21:00:55.636Z,99860.09
2017-09-14T21:03:28.411Z,99866.30
2017-09-14T21:06:31.364Z,99868.36
2017-09-14T21:09:05.405Z,99871.48
2017-09-14T21:11:38.763Z,99871.81
2017-09-14T21:14:11.630Z,99880.85
2017-09-14T21:16:44.916Z,99877.23
2017-09-14T21:19:22.631Z,99872.04
2017-09-14T21:21:56.833Z,99871.81
2017-09-14T21:25:30.476Z,99865.73
2017-09-14T21:28:06.385Z,99863.23
2017-09-14T21:30:42.621Z,99862.73
2017-09-14T21:36:16.160Z,99803.22
2017-09-14T21:38:49.851Z,99866.63
2017-09-14T21:41:28.351Z,99869.38
2017-09-14T21:46:42.970Z,99866.61
2017-09-14T21:49:18.378Z,99878.15
2017-09-14T21:52:02.165Z,99879.20
2017-09-14T21:54:51.677Z,99875.02
2017-09-14T21:57:33.302Z,99883.44
2017-09-14T22:00:17.110Z,99885.96
2017-09-14T22:03:02.597Z,99887.19
2017-09-14T22:05:40.266Z,99890.34
2017-09-14T22:08:26.922Z,99898.18
2017-09-14T22:11:01.830Z,99898.66
2017-09-14T22:13:44.728Z,99898.25
2017-09-14T22:16:26.013Z,99902.78
2017-09-14T22:19:13.351Z,99901.91
2017-09-14T22:24:26.719Z,99916.70
2017-09-14T22:27:00.344Z,99917.76
2017-09-14T22:29:31.937Z,99917.45
2017-09-14T22:32:06.593Z,99919.86
2017-09-14T22:34:36.989Z,99926.48
2017-09-14T22:37:11.855Z,99932.90
2017-09-14T22:39:57.115Z,99933.77
2017-09-14T22:42:34.808Z,99938.53
2017-09-14T22:45:07.077Z,99890.33
2017-09-14T22:50:36.395Z,99943.31
2017-09-14T22:53:17.264Z,99943.84
2017-09-14T22:56:03.158Z,99908.70
2017-09-14T22:58:41.224Z,99953.55
2017-09-14T23:01:18.745Z,99946.89
2017-09-14T23:03:57.386Z,99950.86
2017-09-14T23:06:36.499Z,99956.20
2017-09-14T23:09:19.272Z,99959.25
2017-09-14T23:11:54.836Z,99966.84
2017-09-14T23:14:41.553Z,99971.61
2017-09-14T23:17:17.840Z,99969.60
2017-09-14T23:19:48.966Z,99967.66
2017-09-14T23:22:18.612Z,99976.36
2017-09-14T23:24:47.985Z,99981.89
2017-09-14T23:27:17.574Z,99979.45
2017-09-14T23:29:46.945Z,99990.77
2017-09-14T23:32:16.416Z,99995.70
2017-09-14T23:34:45.906Z,99997.06
2017-09-14T23:37:15.484Z,100005.56
2017-09-14T23:39:44.908Z,100009.11
2017-09-14T23:42:14.371Z,100010.95
2017-09-14T23:44:43.775Z,100017.82
2017-09-14T23:47:13.248Z,100023.97
2017-09-14T23:49:42.949Z,100023.39
2017-09-14T23:52:12.468Z,100021.52
2017-09-14T23:54:43.236Z,100026.91
2017-09-14T23:57:13.400Z,100034.03
2017-09-14T23:59:42.762Z,100040.59
